x

Bodega Bay - 48nm Nnw Of San Francisco, Ca (46013) Wave Buoy

3:50pm - Thu 3rd Sep 2015 All times are PDT. -7 hours from GMT.

  • Sig Wave height 7.5ft
  • Peak Period 11s
  • Average Period 6s
  • Wind
    25mph, 29mph gusts
  • Sea Temp 55°f
  • Air Temp 58°f
  • Sea Pressure 1010.6mb
  • Bodega Bay - 48nm Nnw Of San Francisco, Ca
  • Bodega Bay - 48nm Nnw Of San Francisco, Ca

More Historic Weather Station data

Upgrade to MSW Pro to gain access to the past 30 days of data for over 8000 Wavebouys and Weather Stations around the globe.

Join Pro

Comparision Forecast

View Surf forecast
   
Thu 09/03 3:50pm 7.5ft 11s 6s 25 29 mph 1010.6mb 55f 58f
2:50pm 7.5ft 11s 6s 22 27 mph 1011.2mb 55f 58f
1:50pm 7ft 11s 6s 22 27 mph 1011.6mb 55f 58f
12:50pm 7.5ft 12s 6s 22 27 mph 1011.9mb 55f 58f
11:50am 7ft 11s 6s 25 29 mph 1012.4mb 55f 57f
10:50am 7ft 12s 7s 22 27 mph 1013.2mb 55f 57f
9:50am 7ft 12s 6s 20 25 mph 1013mb 54f 57f
8:50am 7.5ft 11s 7s 20 25 mph 1012.9mb 54f 57f
7:50am 6ft 12s 6s 18 22 mph 1012.8mb 54f 57f
6:50am 6ft 11s 6s 16 20 mph 1012.3mb 54f 57f
5:50am 5.5ft 11s 6s 18 22 mph 1012mb 55f 57f
4:50am 5.5ft 11s 6s 18 20 mph 1011.9mb 55f 57f
3:50am 6ft 11s 6s 18 20 mph 1011.8mb 55f 57f
2:50am 5ft 11s 7s 20 22 mph 1011.7mb 55f 58f
1:50am 5ft 11s 7s 13 16 mph 1012mb 55f 58f
12:50am 5ft 11s 6s 16 18 mph 1012.3mb 55f 58f
Wed 09/02 11:50pm 5ft 11s 6s 16 18 mph 1012.4mb 55f 57f
10:50pm 6ft 11s 6s 20 22 mph 1012.2mb 55f 58f
9:50pm 6ft 12s 6s 20 25 mph 1012.2mb 55f 58f
8:50pm 6ft 12s 6s 20 25 mph 1011.9mb 55f 58f
7:50pm 6ft 11s 6s 20 25 mph 1011.6mb 55f 58f
6:50pm 6ft 11s 6s 22 25 mph 1011.6mb 55f 59f
5:50pm 6ft 11s 6s 22 25 mph 1011.8mb 56f 59f
4:50pm 5.5ft 13s 7s 18 20 mph 1012.3mb 56f 59f
3:50pm 5.5ft 11s 7s 16 18 mph 1012.6mb 56f 59f
2:50pm 6ft 11s 8s 18 20 mph 1013mb 56f 58f
1:50pm 6ft 11s 7s 13 16 mph 1013.6mb 56f 58f
12:50pm 5.5ft 12s 7s 16 18 mph 1013.5mb 56f 58f
11:50am 5.5ft 12s 7s 18 20 mph 1013.7mb 55f 58f
10:50am 6ft 13s 7s 16 18 mph 1013.9mb 55f 57f
9:50am 6ft 11s 7s 11 13 mph 1013.8mb 55f 56f
8:50am 6ft 11s 7s 11 16 mph 1013.6mb 55f 56f
7:50am 6ft 11s 7s 16 18 mph 1013mb 55f 57f
6:50am 5.5ft 11s 6s 16 18 mph 1012.6mb 55f 57f
5:50am 6ft 11s 7s 18 22 mph 1012.1mb 55f 57f
4:50am 5.5ft 11s 7s 18 20 mph 1011.7mb 55f 58f
3:50am 5.5ft 11s 7s 11 13 mph 1012.2mb 55f 58f
2:50am 5.5ft 12s 7s 11 13 mph 1012.3mb 55f 58f
1:50am 6ft 12s 7s 11 16 mph 1012.7mb 55f 57f
12:50am 7ft 12s 6s 20 25 mph 1012.4mb 55f 58f
Tue 09/01 11:50pm 7ft 12s 6s 22 25 mph 1011.9mb 55f 58f
10:50pm 7ft 12s 6s 22 27 mph 1011.9mb 55f 58f
9:50pm 7ft 12s 6s 25 29 mph 1011.6mb 55f 59f
8:50pm 7.5ft 11s 6s 25 29 mph 1011.2mb 56f 59f
7:50pm 7ft 10s 6s 25 29 mph 1010.9mb 56f 59f
6:50pm 7ft 11s 6s 22 27 mph 1010.7mb 56f 60f
5:50pm 7.5ft 10s 7s 22 25 mph 1010.8mb 56f 60f
4:50pm 7ft 11s 7s 18 20 mph 1011.2mb 57f 60f
3:50pm 6.5ft 11s 7s 13 16 mph 1011.6mb 57f 59f
2:50pm 7ft 11s 7s 13 16 mph 1011.8mb 57f 59f
1:50pm 7ft 11s 7s 13 18 mph 1012mb 57f 58f
12:50pm 7ft 11s 7s 11 16 mph 1012.1mb 57f 57f
11:50am 7ft 11s 7s 9 13 mph 1012.1mb 57f 57f
10:50am 7ft 14s 7s 9
mph
1012.2mb 56f 56f
9:50am 7ft 12s 6s 11 13 mph 1011.6mb 56f 56f
8:50am 7ft 8s 6s 11 13 mph 1011.4mb 56f 57f
7:50am 7.5ft 10s 7s 13 18 mph 1011.3mb 56f 57f
6:50am 7ft 14s 7s 13 16 mph 1011mb 56f 57f
5:50am 6.5ft 14s 6s 13 16 mph 1010.8mb 56f 58f
4:50am 7ft 14s 6s 18 20 mph 1010.4mb 56f 58f
3:50am 8ft 8s 7s 16 18 mph 1010.5mb 56f 58f
2:50am 7ft 14s 7s 13 16 mph 1010.5mb 57f 58f
1:50am 7ft 8s 7s 16 18 mph 1010.6mb 57f 59f
12:50am 8ft 15s 7s 16 18 mph 1010.6mb 57f 59f
Mon 08/31 11:50pm 8ft 11s 7s 20 25 mph 1010.1mb 57f 60f
10:50pm 7.5ft 11s 6s 22 27 mph 1010.1mb 57f 60f
9:50pm 8ft 8s 6s 22 27 mph 1010.4mb 57f 60f
8:50pm 8.5ft 7s 6s 25 29 mph 1010mb 57f 60f
7:50pm 9ft 11s 6s 27 31 mph 1010mb 57f 60f
6:50pm 9ft 11s 7s 25 29 mph 1010.4mb 58f 61f
5:50pm 9ft 13s 6s 27 31 mph 1011mb 58f 61f
4:50pm 8.5ft 15s 7s 25 29 mph 1011.6mb 58f 61f
3:50pm 7.5ft 13s 7s 22 27 mph 1012.2mb 58f 60f
2:50pm 7.5ft 15s 7s 18 22 mph 1013mb 58f 60f
1:50pm 8.5ft 15s 8s 16 18 mph 1013.4mb 58f 60f
12:50pm 8ft 15s 8s 13 16 mph 1013.7mb 58f 59f
11:50am 7.5ft 13s 8s 13 16 mph 1013.9mb 58f 59f
10:50am 9ft 11s 8s 13 16 mph 1014mb 58f 59f
9:50am 8.5ft 15s 8s 11 13 mph 1013.7mb 58f 58f
8:50am 8ft 16s 8s 11 13 mph 1013.6mb 58f 59f
7:50am 8ft 9s 7s 13
mph
1013.4mb 58f 59f
6:50am 7ft 16s 6s 18 20 mph 1012.8mb 58f 60f
5:50am 8ft 14s 7s 20 22 mph 1012.7mb 58f 60f
4:50am 6.5ft 13s 6s 22 25 mph 1012.6mb 58f 60f
3:50am 6.5ft 16s 6s 20 25 mph 1012.4mb 58f 60f
2:50am 6.5ft 15s 6s 20 22 mph 1012.4mb 58f 60f
1:50am 6ft 16s 6s 20 22 mph 1012.9mb 57f 60f
12:50am 6ft 14s 6s 20 25 mph 1013.5mb 57f 60f